Saratoga-Weather Station Historical Data
 
Daily Summary for April 05, 2020 Units:  Metric    English   Both
Daily Weekly Monthly Yearly Custom
  Current: High: Low: Average:
Temperature: 6.4 °C 9.6 °C 6.3 °C 7.5 °C
Dew Point: 1.9 °C 2.9 °C 1.6 °C 2.2 °C
Humidity: 73% 73.3% 61% 69%
Wind Speed: 4.3km/h 10.5km/h 0km/h 4.2km/h
Wind Gust: 8km/h 11.3km/h - -
WindSE - - East
Pressure: 1021.2 hPa 1022.6 hPa 1021.2 hPa -
Precipitation: 0 mm      
Historical Graphs
 
 
Tabular Data for April 05, 2020
Time Temperature Dew Point Pressure Wind Wind Speed Wind Gust Humidity Rainfall Rate (Hourly) solar
00:03 9.6 °C 2.8 °C 1022.6 hPa East 9.5 km/h 11.3 km/h 63% 0 mm 0 W/m2
00:09 9.6 °C 2.8 °C 1022.6 hPa East 9 km/h 6.8 km/h 63% 0 mm 0 W/m2
00:14 9.5 °C 2.8 °C 1022.6 hPa ENE 9.2 km/h 6 km/h 63% 0 mm 0 W/m2
00:19 9.4 °C 2.7 °C 1022.6 hPa ESE 8 km/h 11.3 km/h 63% 0 mm 0 W/m2
00:24 9.4 °C 2.5 °C 1022.6 hPa East 10.5 km/h 6.9 km/h 62% 0 mm 0 W/m2
00:29 9.4 °C 2.4 °C 1022.6 hPa East 7.7 km/h 6.4 km/h 61.8% 0 mm 0 W/m2
00:34 9.4 °C 2.2 °C 1022.6 hPa East 7.1 km/h 11.3 km/h 61% 0 mm 0 W/m2
00:39 9.3 °C 2.3 °C 1022.6 hPa ESE 6.3 km/h 3.4 km/h 61.4% 0 mm 0 W/m2
00:44 9.2 °C 2.3 °C 1022.6 hPa East 6.4 km/h 4.8 km/h 62% 0 mm 0 W/m2
00:49 9.2 °C 2.3 °C 1022.6 hPa East 4.7 km/h 9.7 km/h 62% 0 mm 0 W/m2
00:54 9.1 °C 2.4 °C 1022.2 hPa East 8.7 km/h 5.3 km/h 62.8% 0 mm 0 W/m2
00:59 9 °C 2.5 °C 1022.2 hPa East 8 km/h 6 km/h 63.7% 0 mm 0 W/m2
01:04 8.9 °C 2.7 °C 1022.2 hPa ENE 7.4 km/h 6 km/h 65% 0 mm 0 W/m2
01:09 8.9 °C 2.7 °C 1022.2 hPa ENE 6.6 km/h 4.7 km/h 65.3% 0 mm 0 W/m2
01:14 8.8 °C 2.8 °C 1022.2 hPa East 7.4 km/h 4 km/h 66% 0 mm 0 W/m2
01:19 8.7 °C 2.8 °C 1022.2 hPa ESE 6.3 km/h 9.7 km/h 66.2% 0 mm 0 W/m2
01:24 8.7 °C 2.9 °C 1022.2 hPa ESE 4.7 km/h 4.2 km/h 67% 0 mm 0 W/m2
01:28 8.6 °C 2.8 °C 1022.2 hPa ENE 2.4 km/h 0.6 km/h 67% 0 mm 0 W/m2
01:34 8.4 °C 2.8 °C 1022.2 hPa ESE 2.9 km/h 1.9 km/h 67.7% 0 mm 0 W/m2
01:39 8.4 °C 2.8 °C 1022.2 hPa East 2.4 km/h 1.4 km/h 68% 0 mm 0 W/m2
01:44 8.3 °C 2.7 °C 1022.2 hPa ESE 3.9 km/h 1.6 km/h 68% 0 mm 0 W/m2
01:49 8.2 °C 2.8 °C 1022.2 hPa SE 2.9 km/h 8 km/h 68.8% 0 mm 0 W/m2
01:54 8.2 °C 2.8 °C 1022.2 hPa ESE 3.1 km/h 2.1 km/h 69% 0 mm 0 W/m2
01:59 8.1 °C 2.8 °C 1022.2 hPa East 3.9 km/h 3.2 km/h 69% 0 mm 0 W/m2
02:04 8.1 °C 2.6 °C 1022.2 hPa East 4.7 km/h 3.2 km/h 68.4% 0 mm 0 W/m2
02:09 8.1 °C 2.7 °C 1022.2 hPa East 6.1 km/h 3.9 km/h 68.8% 0 mm 0 W/m2
02:14 8 °C 2.7 °C 1022.2 hPa ENE 6.4 km/h 4 km/h 69% 0 mm 0 W/m2
02:19 8 °C 2.7 °C 1021.9 hPa ENE 4.3 km/h 8 km/h 69% 0 mm 0 W/m2
02:24 7.9 °C 2.6 °C 1021.9 hPa ENE 4 km/h 2.3 km/h 69% 0 mm 0 W/m2
02:29 7.9 °C 2.6 °C 1021.9 hPa East 2.3 km/h 1.8 km/h 69.2% 0 mm 0 W/m2
02:34 7.8 °C 2.7 °C 1021.9 hPa East 3.1 km/h 1.6 km/h 70% 0 mm 0 W/m2
02:39 7.8 °C 2.6 °C 1021.9 hPa Calm     69.8% 0 mm 0 W/m2
02:44 7.7 °C 2.3 °C 1021.9 hPa East 1.6 km/h 0.3 km/h 69% 0 mm 0 W/m2
02:49 7.6 °C 2.2 °C 1021.9 hPa East 2.6 km/h 1.4 km/h 69% 0 mm 0 W/m2
02:54 7.4 °C 2.1 °C 1021.9 hPa East 1.6 km/h 0.5 km/h 69% 0 mm 0 W/m2
02:59 7.4 °C 2.2 °C 1021.9 hPa East 1.9 km/h 0.8 km/h 69.8% 0 mm 0 W/m2
03:04 7.3 °C 2.2 °C 1021.9 hPa East 3.1 km/h 1.6 km/h 70% 0 mm 0 W/m2
03:09 7.2 °C 2.1 °C 1021.9 hPa East 3.7 km/h 2.4 km/h 70% 0 mm 0 W/m2
03:13 7.2 °C 1.9 °C 1021.6 hPa East 3.7 km/h 1.9 km/h 69.5% 0 mm 0 W/m2
03:19 7.2 °C 1.8 °C 1021.6 hPa East 3.4 km/h 4.8 km/h 69% 0 mm 0 W/m2
03:24 7.2 °C 1.8 °C 1021.6 hPa East 3.2 km/h 1.3 km/h 69% 0 mm 0 W/m2
03:29 7.2 °C 1.8 °C 1021.6 hPa East 3.7 km/h 2.7 km/h 69% 0 mm 0 W/m2
03:34 7.2 °C 1.7 °C 1021.6 hPa East 4.2 km/h 2.3 km/h 68% 0 mm 0 W/m2
03:39 7.2 °C 1.7 °C 1021.6 hPa ENE 4.7 km/h 3.4 km/h 68% 0 mm 0 W/m2
03:44 7.2 °C 1.7 °C 1021.6 hPa East 4 km/h 1.9 km/h 68% 0 mm 0 W/m2
03:49 7.2 °C 1.7 °C 1021.6 hPa East 1.6 km/h 0.6 km/h 68% 0 mm 0 W/m2
03:54 7.1 °C 1.8 °C 1021.6 hPa ENE 3.7 km/h 1.8 km/h 69% 0 mm 0 W/m2
03:59 7.1 °C 1.8 °C 1021.6 hPa East 4.5 km/h 2.6 km/h 69% 0 mm 0 W/m2
04:04 7.1 °C 1.7 °C 1021.6 hPa East 2.9 km/h 1.6 km/h 69% 0 mm 0 W/m2
04:09 7 °C 1.7 °C 1021.6 hPa East 0.8 km/h 0.2 km/h 69% 0 mm 0 W/m2
04:14 6.9 °C 1.7 °C 1021.6 hPa East 1.4 km/h 0.5 km/h 69% 0 mm 0 W/m2
04:19 6.9 °C 1.6 °C 1021.6 hPa East 1.4 km/h 4.8 km/h 69% 0 mm 0 W/m2
04:24 6.8 °C 1.7 °C 1021.2 hPa East 1 km/h 0.3 km/h 69.8% 0 mm 0 W/m2
04:29 6.7 °C 1.6 °C 1021.2 hPa East 0.5 km/h   70% 0 mm 0 W/m2
04:34 6.7 °C 1.7 °C 1021.2 hPa SE 2.4 km/h 2.9 km/h 70.5% 0 mm 0 W/m2
04:39 6.7 °C 1.8 °C 1021.2 hPa SE 2.6 km/h 1.1 km/h 71% 0 mm 0 W/m2
04:44 6.7 °C 1.8 °C 1021.2 hPa SE 1.4 km/h 0.8 km/h 71.2% 0 mm 0 W/m2
04:49 6.7 °C 2 °C 1021.2 hPa ESE 3.1 km/h 1.8 km/h 72% 0 mm 0 W/m2
04:54 6.7 °C 2 °C 1021.2 hPa ESE 3.7 km/h 1.9 km/h 72% 0 mm 0 W/m2
04:59 6.7 °C 2 °C 1021.2 hPa East 3.7 km/h 2.1 km/h 72% 0 mm 0 W/m2
05:04 6.7 °C 2 °C 1021.2 hPa East 3.9 km/h 8 km/h 72% 0 mm 0 W/m2
05:09 6.7 °C 1.9 °C 1021.2 hPa East 5.6 km/h 3.7 km/h 71.2% 0 mm 0 W/m2
05:13 6.8 °C 1.9 °C 1021.2 hPa East 5.5 km/h 2.9 km/h 71% 0 mm 0 W/m2
05:19 6.8 °C 1.9 °C 1021.2 hPa ESE 4.7 km/h 8 km/h 71% 0 mm 0 W/m2
05:24 6.8 °C 1.8 °C 1021.2 hPa East 4.7 km/h 2.3 km/h 70.6% 0 mm 0 W/m2
05:29 6.8 °C 1.7 °C 1021.2 hPa East 4.3 km/h 1.9 km/h 70.2% 0 mm 0 W/m2
05:34 6.8 °C 1.9 °C 1021.2 hPa East 2.4 km/h 4.8 km/h 71% 0 mm 0 W/m2
05:39 6.7 °C 1.8 °C 1021.2 hPa East 0.5 km/h   71% 0 mm 0 W/m2
05:44 6.7 °C 1.8 °C 1021.2 hPa East 1.8 km/h 1.4 km/h 71% 0 mm 0 W/m2
05:49 6.7 °C 1.8 °C 1021.2 hPa East 3.1 km/h 3.2 km/h 71% 0 mm 0 W/m2
05:54 6.7 °C 1.8 °C 1021.2 hPa East 3.1 km/h 2.6 km/h 71.4% 0 mm 0 W/m2
05:59 6.6 °C 1.9 °C 1021.2 hPa East 2.9 km/h 1.1 km/h 72% 0 mm 0 W/m2
06:04 6.6 °C 1.9 °C 1021.2 hPa ESE 1.6 km/h 3.2 km/h 72% 0 mm 0 W/m2
06:09 6.5 °C 1.8 °C 1021.2 hPa ESE 3.4 km/h 1.4 km/h 72% 0 mm 0 W/m2
06:14 6.5 °C 1.8 °C 1021.2 hPa ESE 2.6 km/h 1.3 km/h 72% 0 mm 0 W/m2
06:19 6.4 °C 1.9 °C 1021.2 hPa ESE 2.6 km/h 4.8 km/h 72.8% 0 mm 0 W/m2
06:23 6.4 °C 1.9 °C 1021.2 hPa ESE 3.7 km/h 2.9 km/h 73% 0 mm 0 W/m2
06:29 6.3 °C 1.8 °C 1021.2 hPa East 4.8 km/h 2.9 km/h 73% 0 mm 0 W/m2
06:34 6.3 °C 1.8 °C 1021.2 hPa ESE 5.8 km/h 8 km/h 73% 0 mm 0 W/m2
06:39 6.3 °C 1.8 °C 1021.2 hPa ESE 6.3 km/h 4 km/h 73% 0 mm 0 W/m2
06:44 6.4 °C 1.9 °C 1021.2 hPa SE 5 km/h 2.7 km/h 73.3% 0 mm 0 W/m2
06:49 6.4 °C 1.9 °C 1021.2 hPa East 4.7 km/h 8 km/h 73% 0 mm 0 W/m2
06:54 6.4 °C 1.9 °C 1021.2 hPa East 5.8 km/h 3.7 km/h 73% 0 mm 0 W/m2
06:59 6.4 °C 1.9 °C 1021.2 hPa East 4.8 km/h 2.6 km/h 73% 0 mm 0 W/m2
07:04 6.4 °C 1.9 °C 1021.2 hPa SE 4.3 km/h 8 km/h 73% 0 mm 0 W/m2
Juneau County Weather
Compliments of Weather Underground - 2 mb